Time;durP1;ratioP1;P1;durP2;ratioP2;P2;SDS_P1;SDS_P2;PMS_P1;PMS_P2;Temp;Humidity;BMP_temperature;BMP_pressure;BME280_temperature;BME280_humidity;BME280_pressure;Samples;Min_cycle;Max_cycle;Signal;HPM_P1;HPM_P2
2023/10/04 00:00:59;;;;;;;8.93;3.13;;;;;;;;;;5112892;28;20043;-64
2023/10/04 00:03:27;;;;;;;9.00;3.10;;;;;;;;;;5112856;28;20049;-64
2023/10/04 00:05:54;;;;;;;8.13;2.87;;;;;;;;;;5112378;28;20094;-65
2023/10/04 00:08:19;;;;;;;10.67;3.40;;;;;;;;;;5112667;28;20047;-65
2023/10/04 00:10:44;;;;;;;8.50;2.77;;;;;;;;;;5113223;28;20063;-64
2023/10/04 00:13:11;;;;;;;9.37;3.17;;;;;;;;;;5113156;28;20023;-64
2023/10/04 00:15:38;;;;;;;12.20;3.17;;;;;;;;;;5112477;28;20031;-63
2023/10/04 00:18:04;;;;;;;12.50;3.20;;;;;;;;;;5112833;28;20055;-64
2023/10/04 00:20:33;;;;;;;11.97;3.27;;;;;;;;;;5112577;28;20035;-66
2023/10/04 00:22:59;;;;;;;10.83;3.00;;;;;;;;;;5111921;28;20027;-65
2023/10/04 00:25:24;;;;;;;9.50;2.97;;;;;;;;;;5112525;28;20011;-65
2023/10/04 00:27:56;;;;;;;9.63;3.03;;;;;;;;;;5112727;28;20019;-65
2023/10/04 00:30:22;;;;;;;9.87;3.23;;;;;;;;;;5112402;28;20020;-66
2023/10/04 00:32:48;;;;;;;12.93;3.70;;;;;;;;;;5112200;28;20026;-64
2023/10/04 00:35:15;;;;;;;9.97;2.60;;;;;;;;;;5114604;27;20023;-65
2023/10/04 00:37:43;;;;;;;11.60;2.97;;;;;;;;;;5112645;28;20099;-65
2023/10/04 00:40:12;;;;;;;7.07;2.33;;;;;;;;;;5112039;28;20077;-65
2023/10/04 00:42:38;;;;;;;10.87;2.53;;;;;;;;;;5112005;28;20011;-64
2023/10/04 00:45:03;;;;;;;7.93;2.57;;;;;;;;;;5112646;28;20012;-63
2023/10/04 00:47:31;;;;;;;8.60;2.77;;;;;;;;;;5112719;28;20065;-63
2023/10/04 00:49:58;;;;;;;6.13;2.27;;;;;;;;;;5111546;28;20552;-63
2023/10/04 00:52:24;;;;;;;10.30;2.80;;;;;;;;;;5111859;28;20019;-64
2023/10/04 00:54:50;;;;;;;12.80;2.60;;;;;;;;;;5112898;28;20468;-66
2023/10/04 00:57:16;;;;;;;7.57;2.60;;;;;;;;;;5112032;28;20043;-66
2023/10/04 00:59:42;;;;;;;9.30;2.67;;;;;;;;;;5111915;28;20024;-63
2023/10/04 01:02:08;;;;;;;7.43;2.40;;;;;;;;;;5111185;28;20023;-65
2023/10/04 01:04:33;;;;;;;10.37;2.50;;;;;;;;;;5103893;28;20056;-65
2023/10/04 01:06:59;;;;;;;8.23;2.60;;;;;;;;;;5093188;28;20012;-64
2023/10/04 01:09:24;;;;;;;9.70;2.80;;;;;;;;;;5093224;28;20460;-63
2023/10/04 01:11:49;;;;;;;7.80;2.40;;;;;;;;;;5096250;28;20095;-64
2023/10/04 01:14:20;;;;;;;9.60;2.70;;;;;;;;;;5112386;28;20379;-65
2023/10/04 01:16:45;;;;;;;8.00;2.33;;;;;;;;;;5112190;28;20094;-65
2023/10/04 01:19:15;;;;;;;6.10;2.27;;;;;;;;;;5100663;28;20703;-64
2023/10/04 01:21:40;;;;;;;12.13;2.43;;;;;;;;;;5092868;28;20040;-64
2023/10/04 01:24:09;;;;;;;9.33;2.83;;;;;;;;;;5092581;28;20055;-65
2023/10/04 01:26:36;;;;;;;6.70;2.40;;;;;;;;;;5090883;28;20024;-65
2023/10/04 01:29:07;;;;;;;9.20;2.83;;;;;;;;;;5092368;28;20115;-66
2023/10/04 01:31:33;;;;;;;8.25;2.58;;;;;;;;;;5092798;28;20468;-66
2023/10/04 01:33:58;;;;;;;10.63;2.57;;;;;;;;;;5092850;28;20108;-64
2023/10/04 01:36:24;;;;;;;10.93;2.40;;;;;;;;;;5092078;28;20095;-65
2023/10/04 01:38:49;;;;;;;11.77;2.40;;;;;;;;;;5092511;28;20073;-64
2023/10/04 01:41:14;;;;;;;10.07;2.50;;;;;;;;;;5092928;28;20031;-65
2023/10/04 01:43:40;;;;;;;7.63;2.13;;;;;;;;;;5092269;28;20104;-64
2023/10/04 01:46:05;;;;;;;9.03;2.57;;;;;;;;;;5092915;28;20021;-64
2023/10/04 01:48:31;;;;;;;8.33;2.50;;;;;;;;;;5092813;28;20032;-64
2023/10/04 01:50:56;;;;;;;5.93;2.27;;;;;;;;;;5098181;28;20024;-64
2023/10/04 01:53:26;;;;;;;9.93;2.53;;;;;;;;;;5101668;28;20085;-64
2023/10/04 01:55:52;;;;;;;7.73;2.40;;;;;;;;;;5092860;28;20468;-61
2023/10/04 01:58:26;;;;;;;8.47;2.10;;;;;;;;;;5097923;28;20020;-62
2023/10/04 02:00:52;;;;;;;8.47;2.37;;;;;;;;;;5095701;28;20573;-65
2023/10/04 02:03:17;;;;;;;6.83;1.80;;;;;;;;;;5100253;28;20123;-64
2023/10/04 02:05:43;;;;;;;8.73;2.67;;;;;;;;;;5115321;28;20503;-64
2023/10/04 02:08:09;;;;;;;7.70;2.10;;;;;;;;;;5115455;28;20116;-64
2023/10/04 02:10:37;;;;;;;11.87;2.70;;;;;;;;;;5115573;28;20561;-63
2023/10/04 02:13:06;;;;;;;6.33;1.80;;;;;;;;;;5115712;28;20024;-64
2023/10/04 02:15:33;;;;;;;10.77;2.57;;;;;;;;;;5115863;28;20038;-65
2023/10/04 02:17:58;;;;;;;7.00;2.20;;;;;;;;;;5118119;27;20070;-63
2023/10/04 02:20:25;;;;;;;9.10;2.40;;;;;;;;;;5114954;28;20043;-64
2023/10/04 02:22:50;;;;;;;7.37;2.03;;;;;;;;;;5115344;28;20022;-65
2023/10/04 02:25:17;;;;;;;10.30;2.83;;;;;;;;;;5115794;28;20098;-64
2023/10/04 02:27:42;;;;;;;7.63;2.20;;;;;;;;;;5115436;28;20493;-64
2023/10/04 02:30:14;;;;;;;8.07;2.00;;;;;;;;;;5115159;28;20016;-64
2023/10/04 02:32:41;;;;;;;9.10;2.40;;;;;;;;;;5114200;28;20016;-64
2023/10/04 02:35:06;;;;;;;11.27;2.50;;;;;;;;;;5117037;27;20027;-64
2023/10/04 02:37:32;;;;;;;8.23;2.40;;;;;;;;;;5114335;28;20023;-64
2023/10/04 02:39:57;;;;;;;6.87;2.43;;;;;;;;;;5115082;28;20027;-64
2023/10/04 02:42:23;;;;;;;8.27;2.60;;;;;;;;;;5115514;28;20040;-65
2023/10/04 02:44:48;;;;;;;14.23;3.13;;;;;;;;;;5115558;28;20019;-64
2023/10/04 02:47:13;;;;;;;7.83;2.47;;;;;;;;;;5114517;28;20016;-64
2023/10/04 02:49:39;;;;;;;8.97;2.50;;;;;;;;;;5114711;28;20068;-65
2023/10/04 02:52:07;;;;;;;7.57;2.33;;;;;;;;;;5110779;28;20133;-64
2023/10/04 02:54:33;;;;;;;7.63;2.47;;;;;;;;;;5115121;28;20493;-65
2023/10/04 02:56:58;;;;;;;8.47;2.20;;;;;;;;;;5115356;28;20051;-63
2023/10/04 02:59:25;;;;;;;7.30;2.50;;;;;;;;;;5114215;28;20028;-65
2023/10/04 03:01:50;;;;;;;14.00;3.10;;;;;;;;;;5113997;28;20030;-65
2023/10/04 03:04:16;;;;;;;8.57;2.70;;;;;;;;;;5113675;28;20044;-64
2023/10/04 03:06:41;;;;;;;10.73;3.07;;;;;;;;;;5105412;28;20070;-65
2023/10/04 03:09:06;;;;;;;8.90;2.33;;;;;;;;;;5094752;28;20032;-65
2023/10/04 03:11:32;;;;;;;13.50;3.20;;;;;;;;;;5094999;28;20037;-64
2023/10/04 03:14:02;;;;;;;8.70;2.80;;;;;;;;;;5093805;28;20036;-64
2023/10/04 03:16:27;;;;;;;7.50;2.90;;;;;;;;;;5102131;28;20456;-65
2023/10/04 03:18:54;;;;;;;8.27;2.80;;;;;;;;;;5103335;28;20047;-64
2023/10/04 03:21:22;;;;;;;12.60;3.07;;;;;;;;;;5094263;28;20099;-65
2023/10/04 03:23:48;;;;;;;10.90;2.53;;;;;;;;;;5094584;28;20027;-63
2023/10/04 03:26:14;;;;;;;11.10;2.70;;;;;;;;;;5094667;28;20467;-66
2023/10/04 03:28:40;;;;;;;12.47;2.73;;;;;;;;;;5095093;28;20057;-64
2023/10/04 03:31:14;;;;;;;9.23;2.50;;;;;;;;;;5094112;28;20032;-65
2023/10/04 03:33:40;;;;;;;10.20;2.40;;;;;;;;;;5094937;28;20068;-65
2023/10/04 03:36:06;;;;;;;6.57;2.27;;;;;;;;;;5097445;28;20539;-64
2023/10/04 03:38:35;;;;;;;9.10;2.70;;;;;;;;;;5093644;28;20153;-66
2023/10/04 03:41:04;;;;;;;8.53;2.67;;;;;;;;;;5094385;28;20510;-64
2023/10/04 03:43:29;;;;;;;6.30;2.33;;;;;;;;;;5094283;28;20487;-65
2023/10/04 03:45:54;;;;;;;15.87;2.53;;;;;;;;;;5094480;28;20028;-64
2023/10/04 03:48:21;;;;;;;10.43;2.70;;;;;;;;;;5105308;28;20027;-66
2023/10/04 03:50:50;;;;;;;8.20;2.63;;;;;;;;;;5113503;28;20023;-64
2023/10/04 03:53:16;;;;;;;12.03;2.93;;;;;;;;;;5094748;28;20023;-65
2023/10/04 03:55:46;;;;;;;11.23;2.73;;;;;;;;;;5104659;28;20379;-63
2023/10/04 03:58:12;;;;;;;8.70;2.67;;;;;;;;;;5093470;28;20028;-64
2023/10/04 04:00:38;;;;;;;9.20;2.80;;;;;;;;;;5094965;28;20016;-63
2023/10/04 04:03:04;;;;;;;8.10;3.20;;;;;;;;;;5096949;28;20016;-63
2023/10/04 04:05:30;;;;;;;10.93;3.07;;;;;;;;;;5113185;28;20102;-64
2023/10/04 04:07:56;;;;;;;8.17;2.70;;;;;;;;;;5102511;28;20028;-63
2023/10/04 04:10:22;;;;;;;9.83;3.30;;;;;;;;;;5094299;28;20089;-64
2023/10/04 04:12:47;;;;;;;12.37;3.50;;;;;;;;;;5093791;28;20445;-66
2023/10/04 04:15:14;;;;;;;11.17;3.50;;;;;;;;;;5098855;28;20028;-64
2023/10/04 04:17:41;;;;;;;15.03;3.53;;;;;;;;;;5093364;28;20024;-65
2023/10/04 04:20:26;;;;;;;10.00;3.03;;;;;;;;;;5093965;28;20456;-66
2023/10/04 04:22:55;;;;;;;8.60;3.30;;;;;;;;;;5094023;28;20411;-64
2023/10/04 04:25:21;;;;;;;9.60;3.10;;;;;;;;;;5092367;28;20531;-64
2023/10/04 04:27:46;;;;;;;12.07;4.13;;;;;;;;;;5109708;28;20111;-64
2023/10/04 04:30:23;;;;;;;11.90;3.57;;;;;;;;;;5111650;28;20471;-65
2023/10/04 04:32:52;;;;;;;12.23;3.50;;;;;;;;;;5093447;28;20032;-63
2023/10/04 04:38:09;;;;;;;15.10;3.47;;;;;;;;;;5099182;28;20031;-65
2023/10/04 04:40:35;;;;;;;10.53;3.50;;;;;;;;;;5098666;28;20483;-65
2023/10/04 04:43:18;;;;;;;9.87;3.83;;;;;;;;;;5092917;28;20020;-60
2023/10/04 04:45:49;;;;;;;13.60;3.77;;;;;;;;;;5094317;28;20460;-61
2023/10/04 04:48:15;;;;;;;15.73;4.35;;;;;;;;;;5095206;28;20461;-63
2023/10/04 04:50:41;;;;;;;13.90;3.87;;;;;;;;;;5098375;28;20042;-61
2023/10/04 04:53:14;;;;;;;11.47;3.90;;;;;;;;;;5095468;28;20012;-60
2023/10/04 04:55:39;;;;;;;14.30;4.47;;;;;;;;;;5100620;28;20068;-61
2023/10/04 04:58:05;;;;;;;14.53;4.20;;;;;;;;;;5093870;28;20095;-62
2023/10/04 05:00:33;;;;;;;12.30;4.23;;;;;;;;;;5109426;28;20029;-62
2023/10/04 05:03:00;;;;;;;11.33;4.03;;;;;;;;;;5112021;28;20015;-61
2023/10/04 05:05:25;;;;;;;12.60;4.17;;;;;;;;;;5112236;28;20071;-63
2023/10/04 05:07:50;;;;;;;13.93;4.70;;;;;;;;;;5097754;28;20069;-63
2023/10/04 05:10:17;;;;;;;8.73;3.63;;;;;;;;;;5092783;28;20517;-63
2023/10/04 05:12:44;;;;;;;10.83;4.07;;;;;;;;;;5097019;28;20471;-64
2023/10/04 05:15:24;;;;;;;14.77;4.43;;;;;;;;;;5105403;28;20024;-61
2023/10/04 05:17:52;;;;;;;10.23;4.07;;;;;;;;;;5093293;28;20372;-63
2023/10/04 05:20:20;;;;;;;12.70;3.90;;;;;;;;;;5092670;28;20016;-62
2023/10/04 05:22:45;;;;;;;13.43;4.87;;;;;;;;;;5094176;28;20066;-60
2023/10/04 05:25:11;;;;;;;13.30;5.10;;;;;;;;;;5093223;28;20012;-61
2023/10/04 05:27:36;;;;;;;16.83;4.50;;;;;;;;;;5104521;28;20069;-63
2023/10/04 05:30:03;;;;;;;9.43;3.63;;;;;;;;;;5092781;28;20031;-61
2023/10/04 05:32:28;;;;;;;23.03;4.87;;;;;;;;;;5096023;28;20023;-64
2023/10/04 05:34:54;;;;;;;13.37;4.30;;;;;;;;;;5094732;28;20365;-60
2023/10/04 05:37:20;;;;;;;19.63;4.37;;;;;;;;;;5096268;28;20039;-64
2023/10/04 05:39:45;;;;;;;16.50;4.50;;;;;;;;;;5109680;28;20058;-64
2023/10/04 05:42:10;;;;;;;12.57;4.00;;;;;;;;;;5116236;28;20379;-61
2023/10/04 05:44:35;;;;;;;14.67;4.87;;;;;;;;;;5103708;28;20380;-64
2023/10/04 05:47:01;;;;;;;13.00;4.87;;;;;;;;;;5114047;28;20430;-63
2023/10/04 05:49:26;;;;;;;16.53;4.73;;;;;;;;;;5104316;28;20153;-63
2023/10/04 05:51:51;;;;;;;16.30;4.43;;;;;;;;;;5104426;28;20059;-65
2023/10/04 05:54:17;;;;;;;11.27;4.07;;;;;;;;;;5102269;28;20035;-65
2023/10/04 05:56:42;;;;;;;14.77;4.50;;;;;;;;;;5096605;28;20089;-63
2023/10/04 05:59:10;;;;;;;15.20;4.10;;;;;;;;;;5103506;28;20471;-65
2023/10/04 06:01:37;;;;;;;16.90;3.70;;;;;;;;;;5113704;28;20414;-65
2023/10/04 06:04:05;;;;;;;17.07;3.90;;;;;;;;;;5101536;28;20044;-65
2023/10/04 06:06:32;;;;;;;15.40;4.23;;;;;;;;;;5116396;28;20061;-63
2023/10/04 06:08:58;;;;;;;14.17;4.13;;;;;;;;;;5116290;28;20402;-66
2023/10/04 06:11:24;;;;;;;10.67;3.40;;;;;;;;;;5115820;28;20016;-65
2023/10/04 06:13:50;;;;;;;17.10;3.87;;;;;;;;;;5116081;28;20128;-64
2023/10/04 06:16:19;;;;;;;10.07;3.60;;;;;;;;;;5116240;28;20521;-66
2023/10/04 06:18:46;;;;;;;13.27;3.40;;;;;;;;;;5115610;28;20043;-64
2023/10/04 06:21:12;;;;;;;11.60;3.70;;;;;;;;;;5115615;28;20015;-65
2023/10/04 06:23:37;;;;;;;13.20;3.47;;;;;;;;;;5115614;28;20460;-64
2023/10/04 06:26:02;;;;;;;12.23;3.23;;;;;;;;;;5116065;28;20459;-63
2023/10/04 06:28:29;;;;;;;13.60;4.47;;;;;;;;;;5115972;28;20058;-64
2023/10/04 06:30:54;;;;;;;11.67;3.57;;;;;;;;;;5114968;27;20482;-64
2023/10/04 06:33:19;;;;;;;10.80;3.00;;;;;;;;;;5115557;28;20020;-63
2023/10/04 06:35:46;;;;;;;9.73;3.35;;;;;;;;;;5115036;28;20019;-63
2023/10/04 06:38:12;;;;;;;12.93;3.30;;;;;;;;;;5115625;28;20053;-65
2023/10/04 06:40:38;;;;;;;13.37;3.30;;;;;;;;;;5115289;28;20016;-64
2023/10/04 06:43:04;;;;;;;12.75;3.13;;;;;;;;;;5111278;28;20361;-64
2023/10/04 06:45:29;;;;;;;12.80;3.03;;;;;;;;;;5115348;28;20568;-63
2023/10/04 06:47:55;;;;;;;9.98;2.78;;;;;;;;;;5113959;28;20032;-63
2023/10/04 06:50:22;;;;;;;12.00;2.97;;;;;;;;;;5115609;28;20100;-63
2023/10/04 06:52:48;;;;;;;7.75;3.00;;;;;;;;;;5115082;28;20072;-64
2023/10/04 06:55:15;;;;;;;9.35;3.20;;;;;;;;;;5114961;28;20015;-64
2023/10/04 06:57:40;;;;;;;14.15;2.95;;;;;;;;;;5114470;28;20024;-63
2023/10/04 07:00:15;;;;;;;13.73;3.20;;;;;;;;;;5114850;28;20028;-62
2023/10/04 07:02:40;;;;;;;11.93;3.03;;;;;;;;;;5115139;28;20038;-63
2023/10/04 07:05:06;;;;;;;9.57;2.55;;;;;;;;;;5114642;28;20040;-63
2023/10/04 07:07:31;;;;;;;10.10;3.10;;;;;;;;;;5114771;28;20501;-62
2023/10/04 07:09:57;;;;;;;8.15;2.60;;;;;;;;;;5115173;28;20391;-62
2023/10/04 07:12:22;;;;;;;10.82;3.08;;;;;;;;;;5114303;28;20379;-62
2023/10/04 07:14:47;;;;;;;9.85;2.70;;;;;;;;;;5114698;28;20126;-62
2023/10/04 07:17:15;;;;;;;8.35;2.67;;;;;;;;;;5114770;28;20551;-63
2023/10/04 07:19:40;;;;;;;14.32;3.00;;;;;;;;;;5114827;28;20478;-63
2023/10/04 07:22:05;;;;;;;9.45;3.17;;;;;;;;;;5114555;28;20012;-62
2023/10/04 07:24:32;;;;;;;11.57;2.50;;;;;;;;;;5114270;28;20012;-63
2023/10/04 07:26:58;;;;;;;11.60;2.60;;;;;;;;;;5114438;28;20031;-61
2023/10/04 07:29:24;;;;;;;7.07;2.20;;;;;;;;;;5114013;28;20064;-63
2023/10/04 07:31:51;;;;;;;7.15;2.38;;;;;;;;;;5114134;28;20032;-63
2023/10/04 07:34:16;;;;;;;11.18;2.50;;;;;;;;;;5114535;28;20054;-63
2023/10/04 07:36:42;;;;;;;6.88;2.50;;;;;;;;;;5114110;28;20028;-62
2023/10/04 07:39:07;;;;;;;8.38;2.38;;;;;;;;;;5114092;28;20022;-63
2023/10/04 07:41:33;;;;;;;7.32;2.13;;;;;;;;;;5114259;28;20008;-64
2023/10/04 07:43:58;;;;;;;6.45;2.35;;;;;;;;;;5114506;28;20016;-62
2023/10/04 07:46:25;;;;;;;10.10;2.67;;;;;;;;;;5113901;28;20073;-62
2023/10/04 07:48:50;;;;;;;10.90;2.53;;;;;;;;;;5114065;28;20057;-62
2023/10/04 07:51:15;;;;;;;10.00;2.65;;;;;;;;;;5114259;28;20019;-62
2023/10/04 07:53:42;;;;;;;7.90;2.75;;;;;;;;;;5113981;28;20044;-63
2023/10/04 07:56:09;;;;;;;11.80;2.42;;;;;;;;;;5113794;28;20455;-63
2023/10/04 07:58:34;;;;;;;8.90;2.40;;;;;;;;;;5113584;28;20043;-63
2023/10/04 08:00:59;;;;;;;9.63;2.58;;;;;;;;;;5113861;28;20054;-62
2023/10/04 08:03:26;;;;;;;8.00;2.42;;;;;;;;;;5113497;28;20018;-62
2023/10/04 08:05:51;;;;;;;9.80;2.50;;;;;;;;;;5113702;28;20376;-62
2023/10/04 08:08:16;;;;;;;8.48;2.20;;;;;;;;;;5114007;28;20028;-62
2023/10/04 08:10:41;;;;;;;10.15;2.70;;;;;;;;;;5113486;28;20054;-62
2023/10/04 08:13:07;;;;;;;12.43;3.10;;;;;;;;;;5113644;28;20031;-63
2023/10/04 08:15:35;;;;;;;9.98;2.40;;;;;;;;;;5113076;28;20022;-62
2023/10/04 08:18:01;;;;;;;6.95;2.45;;;;;;;;;;5113422;28;20035;-62
2023/10/04 08:20:29;;;;;;;12.57;2.67;;;;;;;;;;5113666;28;20027;-64
2023/10/04 08:22:57;;;;;;;9.32;2.00;;;;;;;;;;5113775;28;20031;-64
2023/10/04 08:25:27;;;;;;;11.15;2.22;;;;;;;;;;5113402;28;20387;-63
2023/10/04 08:27:52;;;;;;;8.20;2.45;;;;;;;;;;5113318;28;20034;-64
2023/10/04 08:30:21;;;;;;;8.57;2.15;;;;;;;;;;5115799;27;20016;-63
2023/10/04 08:32:47;;;;;;;9.18;2.28;;;;;;;;;;5112780;28;20043;-63
2023/10/04 08:35:24;;;;;;;8.80;2.17;;;;;;;;;;5115555;27;20039;-63
2023/10/04 08:37:53;;;;;;;10.68;2.30;;;;;;;;;;5113530;28;20028;-64
2023/10/04 08:40:19;;;;;;;9.38;2.20;;;;;;;;;;5113299;28;20119;-64
2023/10/04 08:42:46;;;;;;;7.70;2.03;;;;;;;;;;5113385;28;20420;-64
2023/10/04 08:45:12;;;;;;;10.68;2.92;;;;;;;;;;5112662;28;20106;-63
2023/10/04 08:47:38;;;;;;;8.80;2.67;;;;;;;;;;5113186;28;20536;-63
2023/10/04 08:50:06;;;;;;;8.20;2.42;;;;;;;;;;5112612;28;20463;-63
2023/10/04 08:52:31;;;;;;;6.82;2.00;;;;;;;;;;5113261;28;20478;-64
2023/10/04 08:55:05;;;;;;;8.02;2.20;;;;;;;;;;5113043;28;20051;-63
2023/10/04 08:57:35;;;;;;;12.05;2.83;;;;;;;;;;5113067;28;20022;-65
2023/10/04 09:00:01;;;;;;;8.70;2.53;;;;;;;;;;5113022;28;20034;-65
2023/10/04 09:02:26;;;;;;;7.55;2.08;;;;;;;;;;5112669;28;20454;-64
2023/10/04 09:04:52;;;;;;;10.05;2.25;;;;;;;;;;5112189;28;20086;-64
2023/10/04 09:07:19;;;;;;;8.18;2.42;;;;;;;;;;5112640;28;20099;-64
2023/10/04 09:09:46;;;;;;;9.90;2.67;;;;;;;;;;5112407;28;20015;-65
2023/10/04 09:12:11;;;;;;;9.50;2.50;;;;;;;;;;5115934;28;20083;-64
2023/10/04 09:14:37;;;;;;;9.60;2.20;;;;;;;;;;5117421;28;20102;-65
2023/10/04 09:17:13;;;;;;;11.13;3.00;;;;;;;;;;5112969;28;20544;-64
2023/10/04 09:19:39;;;;;;;7.40;2.33;;;;;;;;;;5116643;28;20022;-64
2023/10/04 09:22:06;;;;;;;12.43;2.78;;;;;;;;;;5117060;28;20020;-63
2023/10/04 09:24:31;;;;;;;14.70;2.85;;;;;;;;;;5117238;28;20439;-65
2023/10/04 09:26:56;;;;;;;11.73;2.83;;;;;;;;;;5116820;28;20023;-64
2023/10/04 09:29:29;;;;;;;10.88;2.72;;;;;;;;;;5119038;27;20023;-64
2023/10/04 09:31:55;;;;;;;13.10;2.67;;;;;;;;;;5116676;27;20051;-63
2023/10/04 09:34:22;;;;;;;14.23;2.78;;;;;;;;;;5116764;28;20460;-63
2023/10/04 09:36:48;;;;;;;10.45;2.65;;;;;;;;;;5116847;28;20103;-64
2023/10/04 09:39:15;;;;;;;9.32;2.70;;;;;;;;;;5116533;28;20118;-64
2023/10/04 09:41:41;;;;;;;8.77;2.33;;;;;;;;;;5116918;28;20102;-64
2023/10/04 09:44:23;;;;;;;9.10;2.55;;;;;;;;;;5116453;28;20471;-64
2023/10/04 09:46:54;;;;;;;9.40;2.70;;;;;;;;;;5116373;28;20012;-64
2023/10/04 09:49:19;;;;;;;9.57;2.70;;;;;;;;;;5116397;28;20051;-63
2023/10/04 09:51:45;;;;;;;13.30;2.78;;;;;;;;;;5116265;28;20293;-64
2023/10/04 09:54:10;;;;;;;9.55;2.80;;;;;;;;;;5115976;28;20032;-63
2023/10/04 09:56:40;;;;;;;12.60;3.47;;;;;;;;;;5116223;28;20019;-64
2023/10/04 09:59:07;;;;;;;14.10;3.13;;;;;;;;;;5115980;28;20031;-64
2023/10/04 10:01:33;;;;;;;9.50;2.60;;;;;;;;;;5115643;28;20011;-65
2023/10/04 10:04:07;;;;;;;12.10;2.65;;;;;;;;;;5115998;28;20039;-63
2023/10/04 10:06:38;;;;;;;10.45;3.20;;;;;;;;;;5116301;28;20455;-64
2023/10/04 10:09:07;;;;;;;12.37;2.67;;;;;;;;;;5097587;28;20047;-64
2023/10/04 10:11:33;;;;;;;9.50;2.38;;;;;;;;;;5112855;27;20402;-64
2023/10/04 10:13:59;;;;;;;15.27;2.80;;;;;;;;;;5114221;28;20015;-64
2023/10/04 10:16:26;;;;;;;10.88;2.30;;;;;;;;;;5115844;28;20024;-64
2023/10/04 10:18:52;;;;;;;7.70;2.55;;;;;;;;;;5115197;28;20023;-64
2023/10/04 10:21:17;;;;;;;11.68;2.88;;;;;;;;;;5115721;28;20019;-64
2023/10/04 10:23:57;;;;;;;11.43;3.10;;;;;;;;;;5115665;28;20016;-64
2023/10/04 10:26:23;;;;;;;9.35;2.47;;;;;;;;;;5115807;28;20015;-64
2023/10/04 10:28:55;;;;;;;8.88;2.67;;;;;;;;;;5096544;28;20673;-64
2023/10/04 10:31:21;;;;;;;11.93;3.00;;;;;;;;;;5114855;28;20088;-64
2023/10/04 10:33:47;;;;;;;12.75;3.35;;;;;;;;;;5115181;28;20019;-64
2023/10/04 10:36:22;;;;;;;8.27;2.53;;;;;;;;;;5117454;27;20027;-65
2023/10/04 10:38:47;;;;;;;6.32;1.75;;;;;;;;;;5113478;28;20103;-66
2023/10/04 10:41:28;;;;;;;13.68;3.35;;;;;;;;;;5115684;28;20417;-64
2023/10/04 10:44:11;;;;;;;12.73;3.10;;;;;;;;;;5113554;28;20023;-65
2023/10/04 10:47:04;;;;;;;11.60;2.70;;;;;;;;;;5114193;28;20035;-64
2023/10/04 10:49:48;;;;;;;11.95;2.65;;;;;;;;;;5046585;28;20045;-65
2023/10/04 10:52:39;;;;;;;12.18;2.80;;;;;;;;;;5048388;28;20021;-65
2023/10/04 10:55:06;;;;;;;8.63;2.50;;;;;;;;;;4991039;28;20045;-64
2023/10/04 10:57:32;;;;;;;7.82;2.40;;;;;;;;;;4992169;28;20500;-64
2023/10/04 10:59:58;;;;;;;7.78;2.25;;;;;;;;;;4990647;28;20117;-65
2023/10/04 11:02:24;;;;;;;8.13;2.35;;;;;;;;;;4991999;28;20038;-63
2023/10/04 11:04:50;;;;;;;8.20;2.17;;;;;;;;;;4986928;28;20046;-64
2023/10/04 11:07:17;;;;;;;10.00;2.80;;;;;;;;;;4985722;28;20032;-65
2023/10/04 11:09:45;;;;;;;9.90;2.63;;;;;;;;;;4989044;28;20096;-64
2023/10/04 11:12:12;;;;;;;10.13;2.67;;;;;;;;;;4979243;28;20128;-64
2023/10/04 11:14:38;;;;;;;8.60;2.10;;;;;;;;;;4980741;28;20031;-64
2023/10/04 11:17:06;;;;;;;7.70;2.63;;;;;;;;;;4992132;28;20026;-64
2023/10/04 11:19:32;;;;;;;12.98;3.10;;;;;;;;;;4988317;28;20050;-65
2023/10/04 11:21:59;;;;;;;11.98;2.80;;;;;;;;;;4988258;28;20038;-64
2023/10/04 11:24:25;;;;;;;8.32;2.25;;;;;;;;;;4987266;28;20014;-65
2023/10/04 11:26:50;;;;;;;8.75;2.30;;;;;;;;;;5002274;28;20044;-64
2023/10/04 11:29:16;;;;;;;12.88;2.88;;;;;;;;;;5011132;28;20029;-64
2023/10/04 11:31:41;;;;;;;7.47;2.33;;;;;;;;;;5047194;28;20407;-65
2023/10/04 11:34:08;;;;;;;8.30;2.40;;;;;;;;;;5114067;28;20011;-65
2023/10/04 11:36:34;;;;;;;9.10;2.40;;;;;;;;;;5113549;27;20015;-64
2023/10/04 11:39:00;;;;;;;7.82;2.67;;;;;;;;;;5113537;28;20459;-64
2023/10/04 11:41:29;;;;;;;7.18;2.30;;;;;;;;;;5114392;28;20090;-61
2023/10/04 11:44:02;;;;;;;9.15;2.70;;;;;;;;;;5114564;28;20061;-62
2023/10/04 11:46:28;;;;;;;8.73;2.58;;;;;;;;;;5113601;28;20143;-63
2023/10/04 11:49:10;;;;;;;8.68;2.60;;;;;;;;;;5113794;28;20020;-63
2023/10/04 11:51:35;;;;;;;;;;;;;;;;;;5114870;28;20528;-62
2023/10/04 11:54:00;;;;;;;11.15;2.42;;;;;;;;;;5114105;28;19979;-62
2023/10/04 11:56:27;;;;;;;9.80;2.88;;;;;;;;;;5114293;28;20725;-58
2023/10/04 11:58:52;;;;;;;11.07;2.90;;;;;;;;;;5113858;28;20020;-59
2023/10/04 12:01:24;;;;;;;10.88;2.80;;;;;;;;;;5113542;28;20540;-60
2023/10/04 12:03:50;;;;;;;8.00;2.50;;;;;;;;;;5112557;28;20067;-60
2023/10/04 12:06:22;;;;;;;9.75;2.60;;;;;;;;;;5113285;28;20479;-62
2023/10/04 12:08:47;;;;;;;10.25;2.75;;;;;;;;;;5095430;28;20494;-60
2023/10/04 12:11:21;;;;;;;13.35;2.80;;;;;;;;;;5114082;28;20019;-60
2023/10/04 12:13:47;;;;;;;10.50;2.63;;;;;;;;;;5113982;28;20019;-59
2023/10/04 12:16:13;;;;;;;11.40;2.88;;;;;;;;;;5113460;28;20467;-59
2023/10/04 12:18:38;;;;;;;9.40;3.13;;;;;;;;;;5113677;28;20039;-59
2023/10/04 12:21:03;;;;;;;10.05;2.88;;;;;;;;;;5113140;28;20007;-58
2023/10/04 12:23:30;;;;;;;11.40;2.85;;;;;;;;;;5113391;28;20023;-60
2023/10/04 12:25:55;;;;;;;8.60;2.88;;;;;;;;;;5113248;28;20398;-59
2023/10/04 12:28:20;;;;;;;13.65;2.97;;;;;;;;;;5113665;28;20090;-60
2023/10/04 12:30:48;;;;;;;9.93;3.03;;;;;;;;;;5114853;27;20054;-61
2023/10/04 12:33:13;;;;;;;12.35;3.30;;;;;;;;;;5113450;28;20041;-58
2023/10/04 12:35:38;;;;;;;10.60;3.03;;;;;;;;;;5112780;28;20503;-60
2023/10/04 12:38:04;;;;;;;11.23;3.17;;;;;;;;;;5113354;28;20023;-59
2023/10/04 12:40:29;;;;;;;7.75;2.60;;;;;;;;;;5113024;28;20011;-61
2023/10/04 12:42:54;;;;;;;10.43;3.55;;;;;;;;;;5112651;28;20023;-59
2023/10/04 12:45:20;;;;;;;11.18;3.03;;;;;;;;;;5112713;28;20011;-60
2023/10/04 12:47:46;;;;;;;12.82;3.22;;;;;;;;;;5113170;28;20011;-60
2023/10/04 12:50:14;;;;;;;13.48;3.17;;;;;;;;;;5113199;28;20371;-58
2023/10/04 12:52:40;;;;;;;12.27;3.05;;;;;;;;;;5113184;28;20371;-59
2023/10/04 12:55:06;;;;;;;9.93;3.13;;;;;;;;;;5113121;28;20016;-59
2023/10/04 12:57:32;;;;;;;9.43;3.20;;;;;;;;;;5113231;28;20471;-60
2023/10/04 12:59:57;;;;;;;8.73;2.63;;;;;;;;;;5112327;28;20031;-58
2023/10/04 13:02:22;;;;;;;10.27;3.17;;;;;;;;;;5112816;28;20127;-60
2023/10/04 13:04:50;;;;;;;11.93;3.40;;;;;;;;;;5112607;28;20043;-63
2023/10/04 13:07:16;;;;;;;10.40;2.85;;;;;;;;;;5113115;28;20466;-64
2023/10/04 13:09:44;;;;;;;11.27;3.17;;;;;;;;;;5112957;28;20049;-63
2023/10/04 13:12:09;;;;;;;11.88;3.05;;;;;;;;;;5112946;28;20019;-63
2023/10/04 13:14:35;;;;;;;12.75;3.22;;;;;;;;;;5112779;28;20026;-63
2023/10/04 13:17:00;;;;;;;11.55;3.05;;;;;;;;;;5112188;28;20372;-63
2023/10/04 13:19:26;;;;;;;11.57;3.50;;;;;;;;;;5112460;28;20015;-64
2023/10/04 13:21:51;;;;;;;9.30;2.85;;;;;;;;;;5112411;28;20027;-63
2023/10/04 13:24:18;;;;;;;12.98;3.35;;;;;;;;;;5114517;28;20106;-63
2023/10/04 13:26:45;;;;;;;11.25;3.53;;;;;;;;;;5112704;28;20011;-64
2023/10/04 13:29:14;;;;;;;9.88;3.10;;;;;;;;;;5112559;28;20096;-64
2023/10/04 13:31:39;;;;;;;11.50;3.22;;;;;;;;;;5112620;28;20020;-63
2023/10/04 13:34:05;;;;;;;11.27;3.17;;;;;;;;;;5111317;28;20081;-63
2023/10/04 13:36:30;;;;;;;10.77;3.15;;;;;;;;;;5112285;28;20016;-63
2023/10/04 13:38:56;;;;;;;9.07;3.22;;;;;;;;;;5112420;28;20027;-64
2023/10/04 13:41:22;;;;;;;12.63;3.30;;;;;;;;;;5112775;28;20020;-63
2023/10/04 13:43:48;;;;;;;10.55;2.95;;;;;;;;;;5112578;28;20121;-63
2023/10/04 13:46:14;;;;;;;12.60;3.30;;;;;;;;;;5112820;28;20103;-64
2023/10/04 13:48:41;;;;;;;11.82;3.10;;;;;;;;;;5112449;28;20141;-63
2023/10/04 13:51:07;;;;;;;8.68;2.80;;;;;;;;;;5112612;28;20391;-64
2023/10/04 13:53:34;;;;;;;11.60;3.05;;;;;;;;;;5112016;28;20424;-63
2023/10/04 13:56:00;;;;;;;10.15;2.95;;;;;;;;;;5112630;28;20024;-63
2023/10/04 13:58:25;;;;;;;9.35;3.15;;;;;;;;;;5115423;28;20471;-63
2023/10/04 14:00:54;;;;;;;9.93;3.45;;;;;;;;;;5116509;28;20492;-64
2023/10/04 14:03:19;;;;;;;11.45;3.78;;;;;;;;;;5116447;28;20392;-64
2023/10/04 14:05:44;;;;;;;10.02;3.38;;;;;;;;;;5097160;28;20051;-64
2023/10/04 14:08:11;;;;;;;11.30;3.30;;;;;;;;;;5108996;28;20094;-64
2023/10/04 14:10:37;;;;;;;11.63;3.47;;;;;;;;;;5115907;28;20368;-64
2023/10/04 14:13:02;;;;;;;12.35;3.38;;;;;;;;;;5100456;28;20483;-64
2023/10/04 14:15:29;;;;;;;11.70;3.97;;;;;;;;;;5110124;28;20030;-60
2023/10/04 14:17:54;;;;;;;13.68;3.92;;;;;;;;;;5115367;28;20016;-61
2023/10/04 14:20:20;;;;;;;11.95;3.45;;;;;;;;;;5115307;28;20220;-62
2023/10/04 14:22:46;;;;;;;11.40;3.08;;;;;;;;;;5108697;28;20023;-60
2023/10/04 14:25:12;;;;;;;12.50;3.35;;;;;;;;;;5095941;28;20020;-60
2023/10/04 14:27:38;;;;;;;10.60;2.88;;;;;;;;;;5095462;28;20502;-61
2023/10/04 14:30:08;;;;;;;8.75;2.78;;;;;;;;;;5095981;28;20028;-61
2023/10/04 14:32:34;;;;;;;14.57;3.20;;;;;;;;;;5095479;28;20487;-61
2023/10/04 14:34:59;;;;;;;12.18;3.33;;;;;;;;;;5095703;28;20028;-62
2023/10/04 14:37:24;;;;;;;14.45;3.33;;;;;;;;;;5095784;28;20020;-63